createdAt,value
2022-09-02T00:01:37.967Z,92.70
2022-09-02T00:04:08.523Z,93.30
2022-09-02T00:06:38.108Z,93.40
2022-09-02T00:09:06.540Z,93.60
2022-09-02T00:11:34.247Z,93.70
2022-09-02T00:14:04.174Z,94.40
2022-09-02T00:16:33.233Z,96.50
2022-09-02T00:19:03.738Z,92.80
2022-09-02T00:21:34.234Z,95.70
2022-09-02T00:24:02.647Z,93.70
2022-09-02T00:26:31.761Z,92.90
2022-09-02T00:28:58.514Z,93.10
2022-09-02T00:31:29.130Z,92.70
2022-09-02T00:33:56.808Z,93.20
2022-09-02T00:36:23.636Z,92.90
2022-09-02T00:38:50.475Z,92.70
2022-09-02T00:41:20.587Z,92.90
2022-09-02T00:44:09.717Z,92.80
2022-09-02T00:46:36.732Z,92.90
2022-09-02T00:49:25.122Z,92.90
2022-09-02T00:52:00.478Z,92.90
2022-09-02T00:54:29.755Z,93.10
2022-09-02T00:56:57.380Z,92.80
2022-09-02T00:59:38.524Z,92.40
2022-09-02T01:02:08.008Z,92.50
2022-09-02T01:04:35.325Z,92.60
2022-09-02T01:07:06.100Z,92.70
2022-09-02T01:09:33.540Z,92.60
2022-09-02T01:12:02.974Z,92.90
2022-09-02T01:14:30.794Z,92.70
2022-09-02T01:17:00.432Z,92.70
2022-09-02T01:19:34.642Z,92.90
2022-09-02T01:22:02.100Z,93.30
2022-09-02T01:24:32.659Z,93.10
2022-09-02T01:27:00.394Z,93.40
2022-09-02T01:29:28.642Z,93.20
2022-09-02T01:31:55.702Z,93.10
2022-09-02T01:34:23.269Z,93.50
2022-09-02T01:36:52.376Z,93.10
2022-09-02T01:39:19.079Z,94.00
2022-09-02T01:41:45.980Z,93.40
2022-09-02T01:44:13.196Z,94.10
2022-09-02T01:46:39.950Z,93.90
2022-09-02T01:49:06.893Z,93.90
2022-09-02T01:51:33.714Z,94.00
2022-09-02T01:54:00.464Z,94.30
2022-09-02T01:56:27.204Z,94.40
2022-09-02T01:58:54.273Z,94.60
2022-09-02T02:01:21.636Z,94.90
2022-09-02T02:03:51.692Z,95.00
2022-09-02T02:06:18.544Z,95.10
2022-09-02T02:08:46.282Z,95.40
2022-09-02T02:11:22.986Z,95.80
2022-09-02T02:13:50.130Z,95.40
2022-09-02T02:16:17.091Z,95.60
2022-09-02T02:18:43.891Z,95.40
2022-09-02T02:21:13.667Z,95.60
2022-09-02T02:23:40.559Z,95.80
2022-09-02T02:26:08.519Z,95.70
2022-09-02T02:28:36.114Z,95.90
2022-09-02T02:31:05.022Z,99.40
2022-09-02T02:33:35.987Z,98.60
2022-09-02T02:36:05.575Z,99.90
2022-09-02T02:38:35.115Z,99.90
2022-09-02T02:41:06.431Z,99.90
2022-09-02T02:43:34.623Z,99.90
2022-09-02T02:46:01.494Z,99.90
2022-09-02T02:48:28.262Z,99.90
2022-09-02T02:50:55.403Z,99.50
2022-09-02T02:53:22.302Z,97.70
2022-09-02T02:55:51.453Z,99.10
2022-09-02T02:58:18.479Z,99.90
2022-09-02T03:00:46.212Z,99.30
2022-09-02T03:03:19.371Z,99.90
2022-09-02T03:05:50.029Z,99.90
2022-09-02T03:08:21.143Z,99.90
2022-09-02T03:10:53.895Z,99.90
2022-09-02T03:13:22.249Z,99.90
2022-09-02T03:15:52.216Z,99.90
2022-09-02T03:18:21.129Z,99.90
2022-09-02T03:33:09.776Z,99.90
2022-09-02T03:35:41.196Z,98.30
2022-09-02T03:43:05.506Z,98.30
2022-09-02T03:48:00.188Z,98.20
2022-09-02T03:50:36.061Z,98.70
2022-09-02T03:53:03.558Z,98.60
2022-09-02T03:55:33.419Z,98.70
2022-09-02T03:58:00.150Z,99.10
2022-09-02T04:00:32.022Z,99.60
2022-09-02T04:03:01.422Z,99.20
2022-09-02T04:05:28.569Z,99.50
2022-09-02T04:07:57.615Z,99.40
2022-09-02T04:10:24.632Z,99.60
2022-09-02T04:12:52.288Z,99.70
2022-09-02T04:15:20.055Z,99.30
2022-09-02T04:18:42.852Z,99.50
2022-09-02T04:21:09.745Z,99.70
2022-09-02T04:23:37.384Z,99.90
2022-09-02T04:26:13.068Z,99.80
2022-09-02T04:28:40.411Z,99.80
2022-09-02T04:31:11.448Z,99.90
2022-09-02T04:33:39.159Z,99.80
2022-09-02T04:36:08.566Z,99.90
2022-09-02T04:38:36.158Z,99.90
2022-09-02T04:41:12.323Z,99.90
2022-09-02T04:43:39.251Z,99.90
2022-09-02T04:46:11.451Z,99.90
2022-09-02T04:48:40.698Z,99.90
2022-09-02T04:51:10.603Z,99.90
2022-09-02T04:53:40.291Z,99.90
2022-09-02T04:56:08.148Z,99.90
2022-09-02T04:58:36.357Z,99.90
2022-09-02T05:01:11.224Z,99.90
2022-09-02T05:03:41.066Z,99.90
2022-09-02T05:06:12.734Z,99.90
2022-09-02T05:08:42.200Z,99.90
2022-09-02T05:11:11.592Z,99.90
2022-09-02T05:13:40.513Z,99.90
2022-09-02T05:16:10.569Z,99.90
2022-09-02T05:18:37.562Z,99.90
2022-09-02T05:21:07.350Z,99.90
2022-09-02T05:23:34.740Z,99.90
2022-09-02T05:26:09.493Z,99.90
2022-09-02T05:28:36.958Z,99.90
2022-09-02T05:31:10.938Z,99.90
2022-09-02T05:33:40.723Z,99.90
2022-09-02T05:36:12.436Z,99.90
2022-09-02T05:38:41.374Z,99.90
2022-09-02T05:41:17.620Z,99.90
2022-09-02T05:43:44.742Z,99.90
2022-09-02T05:46:17.679Z,99.90
2022-09-02T05:49:04.311Z,99.90
2022-09-02T05:51:34.962Z,99.90
2022-09-02T05:54:01.849Z,99.90
2022-09-02T05:56:29.083Z,99.90
2022-09-02T05:58:57.262Z,99.90
2022-09-02T06:01:24.241Z,99.90
2022-09-02T06:03:52.893Z,99.90
2022-09-02T06:06:22.919Z,99.90
2022-09-02T06:08:50.518Z,99.90
2022-09-02T06:11:18.218Z,99.90
2022-09-02T06:13:48.702Z,99.90
2022-09-02T06:16:22.303Z,99.90
2022-09-02T06:18:49.859Z,99.90
2022-09-02T06:21:17.546Z,99.90
2022-09-02T06:23:44.976Z,99.90
2022-09-02T06:26:16.002Z,99.90
2022-09-02T06:28:45.513Z,99.70
2022-09-02T06:31:16.203Z,99.90
2022-09-02T06:33:44.533Z,99.90
2022-09-02T06:36:14.633Z,99.90
2022-09-02T06:38:45.992Z,99.90
2022-09-02T06:41:19.619Z,99.50
2022-09-02T06:43:46.396Z,99.60
2022-09-02T06:46:25.123Z,99.60
2022-09-02T06:48:52.143Z,98.70
2022-09-02T06:51:50.895Z,99.90
2022-09-02T06:54:19.805Z,99.90
2022-09-02T06:56:49.569Z,97.70
2022-09-02T06:59:17.938Z,97.00
2022-09-02T07:01:45.326Z,99.90
2022-09-02T07:04:30.747Z,99.90
2022-09-02T07:06:57.850Z,99.90
2022-09-02T07:09:31.371Z,99.90
2022-09-02T07:12:04.371Z,99.90
2022-09-02T07:14:36.179Z,96.80
2022-09-02T07:17:03.061Z,96.90
2022-09-02T07:19:29.936Z,96.90
2022-09-02T07:22:02.376Z,96.10
2022-09-02T07:24:29.126Z,96.40
2022-09-02T07:26:55.980Z,96.30
2022-09-02T07:29:25.630Z,96.20
2022-09-02T07:31:52.353Z,96.30
2022-09-02T07:34:20.066Z,96.00
2022-09-02T07:36:49.137Z,95.80
2022-09-02T07:39:17.772Z,96.20
2022-09-02T07:41:47.422Z,96.00
2022-09-02T07:44:14.102Z,95.70
2022-09-02T07:46:41.110Z,95.60
2022-09-02T07:49:10.462Z,95.60
2022-09-02T07:51:40.705Z,95.70
2022-09-02T07:54:11.682Z,95.30
2022-09-02T07:56:40.966Z,95.30
2022-09-02T07:59:07.957Z,95.10
2022-09-02T08:01:35.480Z,94.40
2022-09-02T08:04:05.745Z,94.60
2022-09-02T08:06:35.074Z,94.70
2022-09-02T08:09:12.381Z,94.30
2022-09-02T08:11:44.349Z,94.10
2022-09-02T08:14:14.171Z,94.60
2022-09-02T08:16:44.580Z,94.30
2022-09-02T08:19:14.498Z,94.10
2022-09-02T08:24:08.384Z,99.90
2022-09-02T08:26:37.221Z,99.90
2022-09-02T08:29:05.671Z,99.90
2022-09-02T08:31:35.244Z,93.10
2022-09-02T08:34:02.155Z,93.30
2022-09-02T08:36:29.213Z,92.90
2022-09-02T08:38:56.260Z,93.10
2022-09-02T08:41:46.409Z,93.00
2022-09-02T08:44:19.812Z,92.80
2022-09-02T08:46:48.833Z,93.10
2022-09-02T08:49:26.884Z,92.20
2022-09-02T08:52:01.728Z,92.20
2022-09-02T08:54:40.167Z,95.70
2022-09-02T08:57:09.278Z,91.80
2022-09-02T09:02:10.666Z,90.90
2022-09-02T09:05:08.908Z,90.70
2022-09-02T09:07:53.972Z,90.30
2022-09-02T09:10:49.487Z,90.00
2022-09-02T09:13:46.984Z,90.30
2022-09-02T09:16:26.440Z,90.30
2022-09-02T09:19:08.875Z,90.70
2022-09-02T09:21:38.975Z,89.00
2022-09-02T09:24:39.926Z,89.30
2022-09-02T09:27:16.344Z,89.40
2022-09-02T09:29:43.412Z,88.00
2022-09-02T09:32:19.799Z,87.60
2022-09-02T09:34:57.796Z,87.40
2022-09-02T09:37:40.840Z,87.30
2022-09-02T09:40:24.819Z,86.80
2022-09-02T09:43:05.503Z,85.10
2022-09-02T09:45:35.441Z,84.90
2022-09-02T09:48:17.122Z,84.20
2022-09-02T09:50:44.922Z,83.10
2022-09-02T09:53:19.993Z,82.60
2022-09-02T09:56:07.787Z,82.10
2022-09-02T09:58:38.960Z,83.10
2022-09-02T10:01:18.808Z,82.10
2022-09-02T10:04:20.718Z,80.00
2022-09-02T10:06:52.938Z,80.40
2022-09-02T10:09:22.557Z,80.50
2022-09-02T10:12:02.934Z,80.20
2022-09-02T10:14:50.097Z,79.20
2022-09-02T10:17:16.864Z,77.70
2022-09-02T10:20:10.622Z,78.40
2022-09-02T10:22:59.609Z,77.60
2022-09-02T10:25:53.978Z,78.30
2022-09-02T10:28:20.912Z,77.10
2022-09-02T10:30:58.342Z,79.40
2022-09-02T10:33:29.552Z,76.40
2022-09-02T10:36:20.852Z,95.50
2022-09-02T10:41:36.516Z,96.60
2022-09-02T10:44:27.684Z,79.80
2022-09-02T10:47:29.344Z,76.60
2022-09-02T10:50:14.487Z,74.40
2022-09-02T10:53:10.207Z,73.30
2022-09-02T10:56:00.320Z,73.10
2022-09-02T10:58:51.289Z,72.20
2022-09-02T11:01:28.205Z,71.90
2022-09-02T11:04:32.421Z,70.70
2022-09-02T11:07:04.113Z,71.60
2022-09-02T11:09:33.610Z,69.20
2022-09-02T11:12:08.596Z,70.20
2022-09-02T11:15:04.461Z,68.60
2022-09-02T11:17:37.137Z,70.50
2022-09-02T11:20:07.845Z,70.30
2022-09-02T11:23:16.429Z,69.20
2022-09-02T11:25:53.605Z,78.90
2022-09-02T11:28:34.809Z,86.80
2022-09-02T11:31:09.447Z,70.10
2022-09-02T11:33:57.743Z,70.90
2022-09-02T11:36:33.398Z,71.10
2022-09-02T11:39:51.506Z,71.10
2022-09-02T11:42:27.027Z,71.40
2022-09-02T11:45:12.836Z,70.50
2022-09-02T11:47:55.735Z,71.00
2022-09-02T11:50:35.841Z,71.20
2022-09-02T11:53:24.790Z,70.30
2022-09-02T11:55:57.135Z,71.60
2022-09-02T11:58:49.627Z,71.30
2022-09-02T12:01:23.009Z,71.40
2022-09-02T12:07:11.092Z,70.60
2022-09-02T12:09:52.551Z,70.30
2022-09-02T12:12:38.357Z,70.30
2022-09-02T12:15:05.502Z,71.50
2022-09-02T12:17:55.506Z,71.50
2022-09-02T12:20:41.422Z,71.00
2022-09-02T12:23:09.878Z,71.10
2022-09-02T12:25:49.457Z,70.90
2022-09-02T12:28:26.166Z,70.60
2022-09-02T12:31:16.526Z,70.50
2022-09-02T12:33:51.561Z,71.20
2022-09-02T12:36:44.563Z,70.20
2022-09-02T12:39:23.292Z,68.20
2022-09-02T12:42:10.134Z,69.30
2022-09-02T12:45:29.405Z,70.00
2022-09-02T12:50:46.445Z,77.20
2022-09-02T12:53:32.346Z,77.00
2022-09-02T12:56:04.410Z,83.40
2022-09-02T12:58:45.644Z,80.00
2022-09-02T13:01:21.657Z,80.10
2022-09-02T13:04:03.392Z,93.40
2022-09-02T13:06:51.960Z,92.70
2022-09-02T13:09:37.316Z,91.40
2022-09-02T13:12:25.170Z,87.90
2022-09-02T13:15:06.149Z,86.60
2022-09-02T13:18:20.967Z,86.90
2022-09-02T13:21:14.169Z,87.50
2022-09-02T13:24:25.131Z,67.60
2022-09-02T13:27:14.055Z,67.50
2022-09-02T13:30:02.541Z,67.70
2022-09-02T13:32:30.745Z,88.10
2022-09-02T13:35:01.835Z,86.50
2022-09-02T13:37:31.363Z,86.00
2022-09-02T13:39:58.768Z,86.40
2022-09-02T13:42:32.837Z,85.50
2022-09-02T13:45:10.000Z,85.60
2022-09-02T13:47:37.226Z,89.00
2022-09-02T13:50:06.654Z,89.00
2022-09-02T13:53:34.590Z,88.70
2022-09-02T13:55:26.035Z,87.90
2022-09-02T13:58:03.460Z,87.30
2022-09-02T14:00:34.649Z,86.70
2022-09-02T14:03:23.065Z,87.40
2022-09-02T14:05:52.781Z,88.90
2022-09-02T14:08:23.999Z,91.20
2022-09-02T14:10:53.800Z,94.30
2022-09-02T14:13:22.341Z,92.40
2022-09-02T14:18:21.765Z,63.80
2022-09-02T14:21:01.340Z,64.80
2022-09-02T14:23:33.328Z,63.60
2022-09-02T14:26:03.843Z,62.70
2022-09-02T14:28:33.269Z,70.40
2022-09-02T14:31:08.789Z,63.60
2022-09-02T14:36:15.048Z,62.10
2022-09-02T14:38:48.365Z,62.40
2022-09-02T14:41:25.279Z,63.50
2022-09-02T14:43:58.798Z,63.10
2022-09-02T14:46:37.111Z,91.30
2022-09-02T14:49:20.967Z,62.80
2022-09-02T14:51:54.596Z,76.60
2022-09-02T15:02:47.573Z,57.70
2022-09-02T15:05:14.837Z,58.80
2022-09-02T15:07:41.857Z,58.90
2022-09-02T15:10:09.752Z,57.40
2022-09-02T15:12:54.752Z,57.70
2022-09-02T15:15:21.859Z,57.10
2022-09-02T15:17:50.841Z,56.80
2022-09-02T15:20:24.686Z,57.90
2022-09-02T15:22:54.248Z,56.50
2022-09-02T15:25:20.976Z,56.60
2022-09-02T15:27:47.766Z,54.90
2022-09-02T15:30:15.262Z,56.00
2022-09-02T15:32:42.051Z,57.40
2022-09-02T15:35:09.543Z,59.10
2022-09-02T15:37:41.019Z,60.00
2022-09-02T15:40:08.975Z,60.90
2022-09-02T15:42:39.602Z,60.80
2022-09-02T15:45:09.011Z,61.60
2022-09-02T15:47:36.898Z,62.20
2022-09-02T15:50:05.228Z,62.50
2022-09-02T15:52:34.333Z,62.00
2022-09-02T15:55:01.358Z,61.90
2022-09-02T15:57:28.708Z,63.00
2022-09-02T15:59:55.537Z,97.40
2022-09-02T16:02:22.540Z,97.00
2022-09-02T16:04:51.959Z,97.10
2022-09-02T16:07:18.770Z,96.10
2022-09-02T16:09:45.885Z,96.00
2022-09-02T16:12:13.229Z,95.80
2022-09-02T16:14:40.018Z,96.40
2022-09-02T16:17:08.502Z,96.10
2022-09-02T16:19:37.734Z,96.00
2022-09-02T16:22:04.641Z,95.90
2022-09-02T16:24:33.578Z,96.20
2022-09-02T16:27:03.155Z,96.10
2022-09-02T16:29:37.129Z,95.80
2022-09-02T16:34:55.608Z,96.00
2022-09-02T16:37:24.582Z,95.90
2022-09-02T16:39:51.507Z,95.70
2022-09-02T16:42:18.294Z,96.20
2022-09-02T16:44:51.525Z,67.60
2022-09-02T16:47:18.670Z,63.40
2022-09-02T16:49:46.361Z,64.10
2022-09-02T16:52:15.600Z,64.60
2022-09-02T16:54:43.488Z,91.00
2022-09-02T16:57:10.281Z,87.20
2022-09-02T16:59:37.045Z,63.70
2022-09-02T17:02:06.449Z,64.40
2022-09-02T17:04:33.290Z,64.50
2022-09-02T17:07:00.165Z,90.70
2022-09-02T17:09:26.852Z,91.00
2022-09-02T17:11:58.530Z,78.40
2022-09-02T17:14:27.475Z,78.90
2022-09-02T17:16:54.245Z,76.30
2022-09-02T17:19:26.191Z,64.70
2022-09-02T17:21:56.707Z,64.70
2022-09-02T17:24:31.538Z,64.90
2022-09-02T17:27:00.269Z,64.90
2022-09-02T17:29:48.475Z,65.00
2022-09-02T17:32:18.965Z,65.50
2022-09-02T17:34:49.358Z,64.80
2022-09-02T17:37:18.787Z,65.00
2022-09-02T17:39:46.633Z,65.30
2022-09-02T17:42:15.921Z,66.20
2022-09-02T17:44:42.880Z,66.10
2022-09-02T17:47:21.551Z,66.10
2022-09-02T17:49:51.424Z,68.60
2022-09-02T17:52:24.325Z,68.20
2022-09-02T17:54:54.417Z,66.40
2022-09-02T17:57:48.216Z,66.60
2022-09-02T18:00:17.656Z,66.30
2022-09-02T18:03:02.644Z,66.40
2022-09-02T18:05:41.410Z,67.40
2022-09-02T18:08:21.322Z,67.50
2022-09-02T18:10:59.473Z,67.20
2022-09-02T18:13:54.396Z,67.00
2022-09-02T18:16:32.082Z,67.40
2022-09-02T18:19:38.304Z,67.10
2022-09-02T18:22:19.828Z,68.00
2022-09-02T18:24:55.409Z,67.70
2022-09-02T18:27:37.706Z,68.50
2022-09-02T18:30:10.593Z,68.80
2022-09-02T18:33:14.318Z,69.40
2022-09-02T18:36:35.788Z,69.00
2022-09-02T18:39:08.475Z,68.70
2022-09-02T18:41:41.043Z,70.70
2022-09-02T18:44:58.340Z,70.20
2022-09-02T18:47:32.674Z,71.00
2022-09-02T18:50:03.032Z,70.50
2022-09-02T18:52:29.832Z,71.50
2022-09-02T18:55:02.036Z,71.00
2022-09-02T18:57:39.133Z,71.90
2022-09-02T19:00:11.565Z,71.00
2022-09-02T19:03:01.102Z,71.50
2022-09-02T19:05:30.820Z,71.50
2022-09-02T19:08:27.724Z,72.30
2022-09-02T19:11:04.061Z,72.90
2022-09-02T19:13:43.207Z,73.60
2022-09-02T19:16:10.287Z,74.60
2022-09-02T19:18:39.569Z,73.80
2022-09-02T19:21:06.477Z,74.60
2022-09-02T19:23:34.836Z,73.90
2022-09-02T19:26:02.098Z,73.50
2022-09-02T19:28:29.533Z,73.40
2022-09-02T19:31:03.156Z,73.40
2022-09-02T19:33:31.949Z,74.30
2022-09-02T19:35:59.328Z,74.50
2022-09-02T19:38:27.499Z,74.90
2022-09-02T19:40:56.891Z,74.90
2022-09-02T19:45:53.105Z,96.10
2022-09-02T19:48:22.524Z,90.00
2022-09-02T19:50:49.420Z,81.20
2022-09-02T19:53:27.823Z,81.80
2022-09-02T19:55:59.742Z,81.50
2022-09-02T19:58:26.778Z,93.40
2022-09-02T20:00:57.023Z,94.50
2022-09-02T20:03:26.464Z,91.20
2022-09-02T20:05:53.315Z,91.50
2022-09-02T20:08:24.317Z,90.60
2022-09-02T20:13:25.869Z,93.00
2022-09-02T20:15:53.893Z,92.20
2022-09-02T20:18:22.575Z,93.90
2022-09-02T20:20:54.835Z,95.80
2022-09-02T20:26:34.227Z,91.40
2022-09-02T20:29:22.874Z,90.90
2022-09-02T20:32:01.425Z,91.60
2022-09-02T20:34:33.411Z,91.30
2022-09-02T20:37:19.233Z,91.90
2022-09-02T20:40:05.569Z,91.70
2022-09-02T20:43:06.422Z,91.10
2022-09-02T20:46:00.851Z,83.90
2022-09-02T20:48:51.651Z,83.20
2022-09-02T20:51:27.394Z,82.20
2022-09-02T20:54:03.779Z,81.60
2022-09-02T20:56:39.475Z,82.10
2022-09-02T20:59:31.184Z,80.90
2022-09-02T21:02:01.836Z,81.70
2022-09-02T21:04:50.605Z,87.60
2022-09-02T21:07:26.405Z,89.10
2022-09-02T21:10:06.355Z,88.40
2022-09-02T21:12:41.188Z,86.10
2022-09-02T21:15:25.845Z,82.30
2022-09-02T21:18:18.334Z,82.50
2022-09-02T21:20:51.285Z,82.60
2022-09-02T21:23:32.364Z,83.00
2022-09-02T21:26:07.701Z,82.90
2022-09-02T21:28:42.207Z,83.10
2022-09-02T21:31:28.571Z,82.50
2022-09-02T21:33:59.048Z,82.80
2022-09-02T21:36:29.720Z,91.50
2022-09-02T21:39:05.592Z,95.40
2022-09-02T21:41:34.334Z,96.40
2022-09-02T21:44:22.647Z,97.50
2022-09-02T21:47:04.045Z,97.10
2022-09-02T21:49:48.131Z,96.90
2022-09-02T21:52:15.012Z,97.20
2022-09-02T21:55:06.693Z,98.80
2022-09-02T21:57:51.547Z,98.80
2022-09-02T22:00:23.135Z,98.40
2022-09-02T22:03:30.199Z,98.10
2022-09-02T22:06:05.780Z,99.30
2022-09-02T22:08:39.398Z,99.90
2022-09-02T22:11:24.126Z,99.90
2022-09-02T22:13:55.602Z,99.90
2022-09-02T22:16:45.740Z,99.90
2022-09-02T22:19:13.538Z,99.90
2022-09-02T22:21:53.998Z,99.90
2022-09-02T22:24:28.482Z,99.90
2022-09-02T22:27:25.509Z,99.90
2022-09-02T22:30:13.438Z,99.90
2022-09-02T22:51:48.310Z,86.20
2022-09-02T22:54:15.087Z,87.00
2022-09-02T22:56:47.907Z,88.20
2022-09-02T22:59:51.945Z,90.90
2022-09-02T23:02:36.847Z,93.50
2022-09-02T23:05:46.870Z,94.60
2022-09-02T23:08:16.258Z,94.90
2022-09-02T23:10:53.410Z,96.50
2022-09-02T23:16:41.523Z,99.90
2022-09-02T23:19:49.922Z,99.90
2022-09-02T23:22:42.048Z,99.20
2022-09-02T23:28:03.831Z,99.90
2022-09-02T23:33:19.207Z,99.90
2022-09-02T23:43:43.867Z,95.50
2022-09-02T23:46:33.950Z,98.60
2022-09-02T23:49:39.260Z,99.90
2022-09-02T23:52:16.634Z,99.90
2022-09-02T23:55:28.310Z,99.90
